TJNR/NRR METAR and TAF weather

Enter ICAO airport designator
Station Type Date Time Source
TJNR METAR 2020/04/03 06:46 UTC NOAA

TJNR 030646Z AUTO 32005KT 10SM BKN026 OVC042 24/22 A2992 RMK AO2 T02440222


Station Type Date Time Source
TJNR Decoded METAR 2020/04/03 06:46 UTC NOAA

ROOSEVELT ROADS PUERTO RICO, PR, United States (TJNR) 18-15N 65-38W 10M
Apr 03, 2020 - 02:46 AM EDT / 2020.04.03 0646 UTC
Wind: from the NW (320 degrees) at 6 MPH (5 KT):0
Visibility: 10 mile(s):0
Sky conditions: overcast
Temperature: 75.9 F (24.4 C)
Dew Point: 72.0 F (22.2 C)
Relative Humidity: 87%
Pressure (altimeter): 29.92 in. Hg (1013 hPa)
ob: TJNR 030646Z AUTO 32005KT 10SM BKN026 OVC042 24/22 A2992 RMK AO2 T02440222
cycle: 7

Station Type Date Time Source
TJNR TAF UTC NOAA

Error!

Example: see airport list